sensor_id;sensor_type;location;lat;lon;timestamp;P1;durP1;ratioP1;P2;durP2;ratioP2
10319;SDS011;5205;52.168;5.420;2024-03-08T00:04:45;30.10;;;11.05;;
10319;SDS011;5205;52.168;5.420;2024-03-08T00:07:12;29.60;;;12.77;;
10319;SDS011;5205;52.168;5.420;2024-03-08T00:12:08;30.60;;;12.50;;
10319;SDS011;5205;52.168;5.420;2024-03-08T00:14:35;27.92;;;11.43;;
10319;SDS011;5205;52.168;5.420;2024-03-08T00:17:03;27.45;;;12.55;;
10319;SDS011;5205;52.168;5.420;2024-03-08T00:19:30;26.05;;;12.07;;
10319;SDS011;5205;52.168;5.420;2024-03-08T00:21:57;31.38;;;13.48;;
10319;SDS011;5205;52.168;5.420;2024-03-08T00:24:25;24.38;;;11.68;;
10319;SDS011;5205;52.168;5.420;2024-03-08T00:26:54;29.92;;;12.88;;
10319;SDS011;5205;52.168;5.420;2024-03-08T00:29:22;29.38;;;11.93;;
10319;SDS011;5205;52.168;5.420;2024-03-08T00:31:49;31.73;;;12.75;;
10319;SDS011;5205;52.168;5.420;2024-03-08T00:34:16;25.65;;;12.82;;
10319;SDS011;5205;52.168;5.420;2024-03-08T00:36:43;27.50;;;12.18;;
10319;SDS011;5205;52.168;5.420;2024-03-08T00:39:10;26.33;;;12.32;;
10319;SDS011;5205;52.168;5.420;2024-03-08T00:41:38;27.33;;;12.05;;
10319;SDS011;5205;52.168;5.420;2024-03-08T00:44:05;23.20;;;12.13;;
10319;SDS011;5205;52.168;5.420;2024-03-08T00:49:01;27.25;;;11.05;;
10319;SDS011;5205;52.168;5.420;2024-03-08T00:51:28;25.10;;;11.68;;
10319;SDS011;5205;52.168;5.420;2024-03-08T00:53:56;26.90;;;13.38;;
10319;SDS011;5205;52.168;5.420;2024-03-08T00:56:23;30.65;;;12.60;;
10319;SDS011;5205;52.168;5.420;2024-03-08T01:01:18;28.25;;;11.10;;
10319;SDS011;5205;52.168;5.420;2024-03-08T01:03:45;24.98;;;11.93;;
10319;SDS011;5205;52.168;5.420;2024-03-08T01:06:15;25.85;;;11.30;;
10319;SDS011;5205;52.168;5.420;2024-03-08T01:08:42;33.65;;;12.52;;
10319;SDS011;5205;52.168;5.420;2024-03-08T01:11:09;24.92;;;12.93;;
10319;SDS011;5205;52.168;5.420;2024-03-08T01:13:36;28.05;;;12.60;;
10319;SDS011;5205;52.168;5.420;2024-03-08T01:16:03;26.73;;;12.57;;
10319;SDS011;5205;52.168;5.420;2024-03-08T01:18:31;22.08;;;10.43;;
10319;SDS011;5205;52.168;5.420;2024-03-08T01:20:58;26.95;;;12.63;;
10319;SDS011;5205;52.168;5.420;2024-03-08T01:23:26;28.30;;;12.95;;
10319;SDS011;5205;52.168;5.420;2024-03-08T01:25:54;29.13;;;12.35;;
10319;SDS011;5205;52.168;5.420;2024-03-08T01:28:22;28.23;;;11.75;;
10319;SDS011;5205;52.168;5.420;2024-03-08T01:30:50;24.17;;;12.05;;
10319;SDS011;5205;52.168;5.420;2024-03-08T01:33:20;28.27;;;11.35;;
10319;SDS011;5205;52.168;5.420;2024-03-08T01:35:48;27.02;;;12.93;;
10319;SDS011;5205;52.168;5.420;2024-03-08T01:38:15;26.67;;;12.43;;
10319;SDS011;5205;52.168;5.420;2024-03-08T01:40:43;26.80;;;12.07;;
10319;SDS011;5205;52.168;5.420;2024-03-08T01:43:20;31.50;;;13.48;;
10319;SDS011;5205;52.168;5.420;2024-03-08T01:45:48;27.88;;;12.60;;
10319;SDS011;5205;52.168;5.420;2024-03-08T01:48:15;27.42;;;13.07;;
10319;SDS011;5205;52.168;5.420;2024-03-08T01:50:43;26.58;;;12.38;;
10319;SDS011;5205;52.168;5.420;2024-03-08T01:53:11;30.50;;;11.95;;
10319;SDS011;5205;52.168;5.420;2024-03-08T01:55:40;23.95;;;11.32;;
10319;SDS011;5205;52.168;5.420;2024-03-08T01:58:09;28.38;;;12.02;;
10319;SDS011;5205;52.168;5.420;2024-03-08T02:00:36;27.90;;;12.77;;
10319;SDS011;5205;52.168;5.420;2024-03-08T02:03:05;26.67;;;11.93;;
10319;SDS011;5205;52.168;5.420;2024-03-08T02:05:33;28.27;;;13.15;;
10319;SDS011;5205;52.168;5.420;2024-03-08T02:08:00;26.23;;;13.38;;
10319;SDS011;5205;52.168;5.420;2024-03-08T02:10:28;28.45;;;13.52;;
10319;SDS011;5205;52.168;5.420;2024-03-08T02:12:55;28.08;;;13.20;;
10319;SDS011;5205;52.168;5.420;2024-03-08T02:15:24;26.73;;;11.65;;
10319;SDS011;5205;52.168;5.420;2024-03-08T02:17:52;27.95;;;13.20;;
10319;SDS011;5205;52.168;5.420;2024-03-08T02:20:19;26.33;;;11.77;;
10319;SDS011;5205;52.168;5.420;2024-03-08T02:22:47;30.15;;;13.13;;
10319;SDS011;5205;52.168;5.420;2024-03-08T02:25:15;29.80;;;12.70;;
10319;SDS011;5205;52.168;5.420;2024-03-08T02:27:43;35.17;;;13.65;;
10319;SDS011;5205;52.168;5.420;2024-03-08T02:30:10;24.77;;;11.73;;
10319;SDS011;5205;52.168;5.420;2024-03-08T02:32:38;28.27;;;12.20;;
10319;SDS011;5205;52.168;5.420;2024-03-08T02:35:06;26.98;;;12.38;;
10319;SDS011;5205;52.168;5.420;2024-03-08T02:37:33;27.27;;;12.93;;
10319;SDS011;5205;52.168;5.420;2024-03-08T02:40:01;25.13;;;12.18;;
10319;SDS011;5205;52.168;5.420;2024-03-08T02:42:28;26.30;;;11.75;;
10319;SDS011;5205;52.168;5.420;2024-03-08T02:44:55;29.27;;;13.73;;
10319;SDS011;5205;52.168;5.420;2024-03-08T02:47:23;27.02;;;12.60;;
10319;SDS011;5205;52.168;5.420;2024-03-08T02:49:51;29.00;;;11.65;;
10319;SDS011;5205;52.168;5.420;2024-03-08T02:52:18;28.92;;;12.70;;
10319;SDS011;5205;52.168;5.420;2024-03-08T02:54:46;26.83;;;13.63;;
10319;SDS011;5205;52.168;5.420;2024-03-08T02:57:14;29.58;;;13.73;;
10319;SDS011;5205;52.168;5.420;2024-03-08T02:59:41;25.98;;;12.60;;
10319;SDS011;5205;52.168;5.420;2024-03-08T03:02:09;23.48;;;11.57;;
10319;SDS011;5205;52.168;5.420;2024-03-08T03:04:36;28.38;;;12.98;;
10319;SDS011;5205;52.168;5.420;2024-03-08T03:07:06;25.75;;;12.00;;
10319;SDS011;5205;52.168;5.420;2024-03-08T03:09:33;25.10;;;12.20;;
10319;SDS011;5205;52.168;5.420;2024-03-08T03:12:00;30.85;;;14.18;;
10319;SDS011;5205;52.168;5.420;2024-03-08T03:14:28;34.35;;;14.63;;
10319;SDS011;5205;52.168;5.420;2024-03-08T03:16:55;26.73;;;11.98;;
10319;SDS011;5205;52.168;5.420;2024-03-08T03:19:23;26.83;;;13.00;;
10319;SDS011;5205;52.168;5.420;2024-03-08T03:21:50;25.65;;;12.30;;
10319;SDS011;5205;52.168;5.420;2024-03-08T03:24:17;25.23;;;13.32;;
10319;SDS011;5205;52.168;5.420;2024-03-08T03:26:46;29.35;;;12.43;;
10319;SDS011;5205;52.168;5.420;2024-03-08T03:29:14;28.60;;;12.90;;
10319;SDS011;5205;52.168;5.420;2024-03-08T03:31:43;27.13;;;12.50;;
10319;SDS011;5205;52.168;5.420;2024-03-08T03:34:11;30.15;;;11.82;;
10319;SDS011;5205;52.168;5.420;2024-03-08T03:36:38;24.08;;;11.52;;
10319;SDS011;5205;52.168;5.420;2024-03-08T03:39:07;32.45;;;14.07;;
10319;SDS011;5205;52.168;5.420;2024-03-08T03:41:37;33.33;;;14.20;;
10319;SDS011;5205;52.168;5.420;2024-03-08T03:44:05;31.02;;;13.95;;
10319;SDS011;5205;52.168;5.420;2024-03-08T03:46:32;28.40;;;13.65;;
10319;SDS011;5205;52.168;5.420;2024-03-08T03:49:02;31.55;;;13.45;;
10319;SDS011;5205;52.168;5.420;2024-03-08T03:51:29;30.60;;;14.07;;
10319;SDS011;5205;52.168;5.420;2024-03-08T03:53:56;28.48;;;14.07;;
10319;SDS011;5205;52.168;5.420;2024-03-08T03:56:25;28.75;;;13.10;;
10319;SDS011;5205;52.168;5.420;2024-03-08T03:58:52;22.60;;;11.45;;
10319;SDS011;5205;52.168;5.420;2024-03-08T04:01:19;27.98;;;13.73;;
10319;SDS011;5205;52.168;5.420;2024-03-08T04:03:46;27.42;;;12.88;;
10319;SDS011;5205;52.168;5.420;2024-03-08T04:06:15;26.13;;;13.30;;
10319;SDS011;5205;52.168;5.420;2024-03-08T04:08:42;28.73;;;12.93;;
10319;SDS011;5205;52.168;5.420;2024-03-08T04:11:09;31.67;;;13.13;;
10319;SDS011;5205;52.168;5.420;2024-03-08T04:13:36;26.80;;;14.02;;
10319;SDS011;5205;52.168;5.420;2024-03-08T04:16:04;29.10;;;13.35;;
10319;SDS011;5205;52.168;5.420;2024-03-08T04:18:33;31.55;;;13.75;;
10319;SDS011;5205;52.168;5.420;2024-03-08T04:21:00;20.65;;;11.25;;
10319;SDS011;5205;52.168;5.420;2024-03-08T04:23:29;27.40;;;14.18;;
10319;SDS011;5205;52.168;5.420;2024-03-08T04:25:56;25.73;;;12.55;;
10319;SDS011;5205;52.168;5.420;2024-03-08T04:28:23;30.48;;;13.55;;
10319;SDS011;5205;52.168;5.420;2024-03-08T04:30:51;26.13;;;12.27;;
10319;SDS011;5205;52.168;5.420;2024-03-08T04:33:18;25.02;;;11.57;;
10319;SDS011;5205;52.168;5.420;2024-03-08T04:35:46;26.02;;;12.63;;
10319;SDS011;5205;52.168;5.420;2024-03-08T04:38:13;30.10;;;12.95;;
10319;SDS011;5205;52.168;5.420;2024-03-08T04:40:42;29.98;;;13.73;;
10319;SDS011;5205;52.168;5.420;2024-03-08T04:43:09;26.73;;;13.40;;
10319;SDS011;5205;52.168;5.420;2024-03-08T04:48:04;26.08;;;12.55;;
10319;SDS011;5205;52.168;5.420;2024-03-08T04:50:33;25.38;;;12.05;;
10319;SDS011;5205;52.168;5.420;2024-03-08T04:53:00;22.77;;;12.10;;
10319;SDS011;5205;52.168;5.420;2024-03-08T04:55:28;28.33;;;13.48;;
10319;SDS011;5205;52.168;5.420;2024-03-08T04:57:56;26.77;;;13.23;;
10319;SDS011;5205;52.168;5.420;2024-03-08T05:00:24;24.80;;;12.13;;
10319;SDS011;5205;52.168;5.420;2024-03-08T05:02:51;27.52;;;13.60;;
10319;SDS011;5205;52.168;5.420;2024-03-08T05:05:18;29.70;;;13.95;;
10319;SDS011;5205;52.168;5.420;2024-03-08T05:07:45;24.80;;;13.20;;
10319;SDS011;5205;52.168;5.420;2024-03-08T05:10:13;31.17;;;12.68;;
10319;SDS011;5205;52.168;5.420;2024-03-08T05:12:42;28.50;;;13.23;;
10319;SDS011;5205;52.168;5.420;2024-03-08T05:15:10;27.42;;;13.30;;
10319;SDS011;5205;52.168;5.420;2024-03-08T05:17:38;28.88;;;13.38;;
10319;SDS011;5205;52.168;5.420;2024-03-08T05:20:05;25.23;;;13.25;;
10319;SDS011;5205;52.168;5.420;2024-03-08T05:22:37;26.52;;;13.73;;
10319;SDS011;5205;52.168;5.420;2024-03-08T05:25:05;26.65;;;13.00;;
10319;SDS011;5205;52.168;5.420;2024-03-08T05:27:33;29.40;;;13.43;;
10319;SDS011;5205;52.168;5.420;2024-03-08T05:30:01;29.50;;;14.27;;
10319;SDS011;5205;52.168;5.420;2024-03-08T05:32:30;25.38;;;13.60;;
10319;SDS011;5205;52.168;5.420;2024-03-08T05:34:57;23.83;;;12.57;;
10319;SDS011;5205;52.168;5.420;2024-03-08T05:37:24;22.42;;;11.88;;
10319;SDS011;5205;52.168;5.420;2024-03-08T05:39:51;29.75;;;14.05;;
10319;SDS011;5205;52.168;5.420;2024-03-08T05:42:19;27.15;;;13.02;;
10319;SDS011;5205;52.168;5.420;2024-03-08T05:44:46;24.50;;;13.50;;
10319;SDS011;5205;52.168;5.420;2024-03-08T05:47:14;28.10;;;13.52;;
10319;SDS011;5205;52.168;5.420;2024-03-08T05:49:44;24.92;;;14.25;;
10319;SDS011;5205;52.168;5.420;2024-03-08T05:52:11;29.10;;;14.63;;
10319;SDS011;5205;52.168;5.420;2024-03-08T05:54:39;26.55;;;12.85;;
10319;SDS011;5205;52.168;5.420;2024-03-08T05:57:07;31.10;;;14.30;;
10319;SDS011;5205;52.168;5.420;2024-03-08T05:59:34;27.38;;;13.52;;
10319;SDS011;5205;52.168;5.420;2024-03-08T06:02:01;27.88;;;13.07;;
10319;SDS011;5205;52.168;5.420;2024-03-08T06:04:29;26.83;;;13.23;;
10319;SDS011;5205;52.168;5.420;2024-03-08T06:06:58;29.30;;;14.43;;
10319;SDS011;5205;52.168;5.420;2024-03-08T06:09:25;29.88;;;14.00;;
10319;SDS011;5205;52.168;5.420;2024-03-08T06:11:52;27.40;;;12.82;;
10319;SDS011;5205;52.168;5.420;2024-03-08T06:14:19;23.75;;;12.07;;
10319;SDS011;5205;52.168;5.420;2024-03-08T06:16:47;28.58;;;13.32;;
10319;SDS011;5205;52.168;5.420;2024-03-08T06:19:15;26.67;;;12.82;;
10319;SDS011;5205;52.168;5.420;2024-03-08T06:21:42;28.95;;;12.82;;
10319;SDS011;5205;52.168;5.420;2024-03-08T06:24:10;29.35;;;15.00;;
10319;SDS011;5205;52.168;5.420;2024-03-08T06:26:40;24.98;;;12.70;;
10319;SDS011;5205;52.168;5.420;2024-03-08T06:29:07;30.67;;;14.48;;
10319;SDS011;5205;52.168;5.420;2024-03-08T06:31:35;32.35;;;13.60;;
10319;SDS011;5205;52.168;5.420;2024-03-08T06:34:04;26.73;;;13.98;;
10319;SDS011;5205;52.168;5.420;2024-03-08T06:36:32;23.52;;;12.80;;
10319;SDS011;5205;52.168;5.420;2024-03-08T06:39:00;29.95;;;13.82;;
10319;SDS011;5205;52.168;5.420;2024-03-08T06:41:35;24.85;;;13.57;;
10319;SDS011;5205;52.168;5.420;2024-03-08T06:44:02;28.55;;;13.38;;
10319;SDS011;5205;52.168;5.420;2024-03-08T06:46:30;24.60;;;13.70;;
10319;SDS011;5205;52.168;5.420;2024-03-08T06:48:57;26.63;;;13.75;;
10319;SDS011;5205;52.168;5.420;2024-03-08T06:51:24;35.10;;;14.48;;
10319;SDS011;5205;52.168;5.420;2024-03-08T06:53:51;26.23;;;13.18;;
10319;SDS011;5205;52.168;5.420;2024-03-08T06:56:18;27.55;;;12.85;;
10319;SDS011;5205;52.168;5.420;2024-03-08T06:58:47;31.45;;;13.32;;
10319;SDS011;5205;52.168;5.420;2024-03-08T07:01:14;28.48;;;14.80;;
10319;SDS011;5205;52.168;5.420;2024-03-08T07:03:42;30.55;;;14.75;;
10319;SDS011;5205;52.168;5.420;2024-03-08T07:06:09;24.63;;;13.35;;
10319;SDS011;5205;52.168;5.420;2024-03-08T07:08:36;28.95;;;13.82;;
10319;SDS011;5205;52.168;5.420;2024-03-08T07:11:04;27.77;;;13.93;;
10319;SDS011;5205;52.168;5.420;2024-03-08T07:13:31;23.77;;;13.25;;
10319;SDS011;5205;52.168;5.420;2024-03-08T07:16:00;27.23;;;13.32;;
10319;SDS011;5205;52.168;5.420;2024-03-08T07:18:27;26.45;;;13.30;;
10319;SDS011;5205;52.168;5.420;2024-03-08T07:20:55;32.63;;;14.65;;
10319;SDS011;5205;52.168;5.420;2024-03-08T07:23:22;30.95;;;14.48;;
10319;SDS011;5205;52.168;5.420;2024-03-08T07:26:07;23.65;;;12.65;;
10319;SDS011;5205;52.168;5.420;2024-03-08T07:28:34;29.52;;;13.80;;
10319;SDS011;5205;52.168;5.420;2024-03-08T07:33:43;27.20;;;12.60;;
10319;SDS011;5205;52.168;5.420;2024-03-08T07:36:10;24.00;;;13.13;;
10319;SDS011;5205;52.168;5.420;2024-03-08T07:38:39;27.58;;;14.52;;
10319;SDS011;5205;52.168;5.420;2024-03-08T07:41:06;27.20;;;13.18;;
10319;SDS011;5205;52.168;5.420;2024-03-08T07:43:34;30.15;;;15.13;;
10319;SDS011;5205;52.168;5.420;2024-03-08T07:46:01;32.33;;;14.38;;
10319;SDS011;5205;52.168;5.420;2024-03-08T07:48:28;28.13;;;13.95;;
10319;SDS011;5205;52.168;5.420;2024-03-08T07:50:57;24.73;;;11.75;;
10319;SDS011;5205;52.168;5.420;2024-03-08T07:53:24;28.60;;;12.93;;
10319;SDS011;5205;52.168;5.420;2024-03-08T07:55:51;29.15;;;13.82;;
10319;SDS011;5205;52.168;5.420;2024-03-08T08:00:46;29.13;;;13.60;;
10319;SDS011;5205;52.168;5.420;2024-03-08T08:03:14;29.35;;;13.65;;
10319;SDS011;5205;52.168;5.420;2024-03-08T08:05:41;28.63;;;13.65;;
10319;SDS011;5205;52.168;5.420;2024-03-08T08:08:09;27.10;;;12.50;;
10319;SDS011;5205;52.168;5.420;2024-03-08T08:10:36;26.23;;;13.48;;
10319;SDS011;5205;52.168;5.420;2024-03-08T08:13:03;28.50;;;14.15;;
10319;SDS011;5205;52.168;5.420;2024-03-08T08:15:31;30.05;;;15.90;;
10319;SDS011;5205;52.168;5.420;2024-03-08T08:17:59;25.55;;;12.98;;
10319;SDS011;5205;52.168;5.420;2024-03-08T08:20:27;28.63;;;14.50;;
10319;SDS011;5205;52.168;5.420;2024-03-08T08:25:23;30.05;;;12.98;;
10319;SDS011;5205;52.168;5.420;2024-03-08T08:27:50;28.83;;;13.55;;
10319;SDS011;5205;52.168;5.420;2024-03-08T08:30:18;26.05;;;13.20;;
10319;SDS011;5205;52.168;5.420;2024-03-08T08:32:45;27.08;;;14.77;;
10319;SDS011;5205;52.168;5.420;2024-03-08T08:35:13;25.95;;;12.68;;
10319;SDS011;5205;52.168;5.420;2024-03-08T08:37:41;28.20;;;14.55;;
10319;SDS011;5205;52.168;5.420;2024-03-08T08:40:09;26.33;;;13.25;;
10319;SDS011;5205;52.168;5.420;2024-03-08T08:42:40;31.92;;;14.45;;
10319;SDS011;5205;52.168;5.420;2024-03-08T08:45:08;28.45;;;14.05;;
10319;SDS011;5205;52.168;5.420;2024-03-08T08:47:35;24.67;;;13.93;;
10319;SDS011;5205;52.168;5.420;2024-03-08T08:52:30;26.05;;;14.25;;
10319;SDS011;5205;52.168;5.420;2024-03-08T08:54:57;27.38;;;13.25;;
10319;SDS011;5205;52.168;5.420;2024-03-08T08:57:25;30.40;;;13.77;;
10319;SDS011;5205;52.168;5.420;2024-03-08T08:59:54;25.60;;;13.35;;
10319;SDS011;5205;52.168;5.420;2024-03-08T09:02:22;27.02;;;13.45;;
10319;SDS011;5205;52.168;5.420;2024-03-08T09:04:50;25.85;;;12.38;;
10319;SDS011;5205;52.168;5.420;2024-03-08T09:07:18;28.52;;;14.32;;
10319;SDS011;5205;52.168;5.420;2024-03-08T09:09:45;29.55;;;13.75;;
10319;SDS011;5205;52.168;5.420;2024-03-08T09:12:12;31.45;;;13.75;;
10319;SDS011;5205;52.168;5.420;2024-03-08T09:14:39;24.65;;;12.93;;
10319;SDS011;5205;52.168;5.420;2024-03-08T09:19:35;22.67;;;12.27;;
10319;SDS011;5205;52.168;5.420;2024-03-08T09:22:02;25.63;;;13.60;;
10319;SDS011;5205;52.168;5.420;2024-03-08T09:24:30;27.88;;;12.98;;
10319;SDS011;5205;52.168;5.420;2024-03-08T09:26:57;28.05;;;14.98;;
10319;SDS011;5205;52.168;5.420;2024-03-08T09:29:24;31.45;;;14.68;;
10319;SDS011;5205;52.168;5.420;2024-03-08T09:31:52;33.15;;;14.48;;
10319;SDS011;5205;52.168;5.420;2024-03-08T09:34:19;26.52;;;14.00;;
10319;SDS011;5205;52.168;5.420;2024-03-08T09:39:14;27.67;;;12.90;;
10319;SDS011;5205;52.168;5.420;2024-03-08T09:41:45;25.05;;;12.43;;
10319;SDS011;5205;52.168;5.420;2024-03-08T09:44:13;22.50;;;13.27;;
10319;SDS011;5205;52.168;5.420;2024-03-08T09:46:40;26.35;;;13.90;;
10319;SDS011;5205;52.168;5.420;2024-03-08T09:49:08;27.80;;;13.70;;
10319;SDS011;5205;52.168;5.420;2024-03-08T09:51:36;26.13;;;13.20;;
10319;SDS011;5205;52.168;5.420;2024-03-08T09:54:05;26.42;;;13.30;;
10319;SDS011;5205;52.168;5.420;2024-03-08T09:56:34;26.25;;;13.90;;
10319;SDS011;5205;52.168;5.420;2024-03-08T09:59:01;25.73;;;12.30;;
10319;SDS011;5205;52.168;5.420;2024-03-08T10:02:05;24.13;;;12.73;;
10319;SDS011;5205;52.168;5.420;2024-03-08T10:04:34;23.10;;;11.77;;
10319;SDS011;5205;52.168;5.420;2024-03-08T10:09:28;26.52;;;12.88;;
10319;SDS011;5205;52.168;5.420;2024-03-08T10:14:24;23.17;;;11.82;;
10319;SDS011;5205;52.168;5.420;2024-03-08T10:16:51;24.60;;;11.60;;
10319;SDS011;5205;52.168;5.420;2024-03-08T10:19:19;24.00;;;12.32;;
10319;SDS011;5205;52.168;5.420;2024-03-08T10:21:47;28.08;;;12.68;;
10319;SDS011;5205;52.168;5.420;2024-03-08T10:24:15;26.48;;;12.98;;
10319;SDS011;5205;52.168;5.420;2024-03-08T10:26:42;25.48;;;12.95;;
10319;SDS011;5205;52.168;5.420;2024-03-08T10:29:09;21.90;;;12.57;;
10319;SDS011;5205;52.168;5.420;2024-03-08T10:31:41;25.88;;;12.68;;
10319;SDS011;5205;52.168;5.420;2024-03-08T10:34:10;28.58;;;13.35;;
10319;SDS011;5205;52.168;5.420;2024-03-08T10:36:37;23.85;;;12.57;;
10319;SDS011;5205;52.168;5.420;2024-03-08T10:39:06;30.52;;;13.80;;
10319;SDS011;5205;52.168;5.420;2024-03-08T10:41:35;23.60;;;11.30;;
10319;SDS011;5205;52.168;5.420;2024-03-08T10:44:10;23.00;;;12.27;;
10319;SDS011;5205;52.168;5.420;2024-03-08T10:46:40;25.50;;;12.27;;
10319;SDS011;5205;52.168;5.420;2024-03-08T10:49:12;26.73;;;13.32;;
10319;SDS011;5205;52.168;5.420;2024-03-08T10:51:43;18.90;;;11.13;;
10319;SDS011;5205;52.168;5.420;2024-03-08T10:54:12;25.13;;;11.98;;
10319;SDS011;5205;52.168;5.420;2024-03-08T10:56:42;22.27;;;11.93;;
10319;SDS011;5205;52.168;5.420;2024-03-08T10:59:09;23.88;;;11.45;;
10319;SDS011;5205;52.168;5.420;2024-03-08T11:01:37;23.40;;;12.25;;
10319;SDS011;5205;52.168;5.420;2024-03-08T11:04:05;20.98;;;11.13;;
10319;SDS011;5205;52.168;5.420;2024-03-08T11:06:42;25.02;;;12.52;;
10319;SDS011;5205;52.168;5.420;2024-03-08T11:09:18;20.00;;;11.45;;
10319;SDS011;5205;52.168;5.420;2024-03-08T11:14:45;19.20;;;10.00;;
10319;SDS011;5205;52.168;5.420;2024-03-08T11:17:14;20.58;;;10.50;;
10319;SDS011;5205;52.168;5.420;2024-03-08T11:19:45;25.40;;;13.05;;
10319;SDS011;5205;52.168;5.420;2024-03-08T11:22:21;26.55;;;12.90;;
10319;SDS011;5205;52.168;5.420;2024-03-08T11:24:52;25.60;;;11.68;;
10319;SDS011;5205;52.168;5.420;2024-03-08T11:27:19;21.33;;;11.15;;
10319;SDS011;5205;52.168;5.420;2024-03-08T11:29:58;21.70;;;11.20;;
10319;SDS011;5205;52.168;5.420;2024-03-08T11:32:27;19.42;;;10.52;;
10319;SDS011;5205;52.168;5.420;2024-03-08T11:34:55;15.68;;;9.70;;
10319;SDS011;5205;52.168;5.420;2024-03-08T11:37:24;18.52;;;10.00;;
10319;SDS011;5205;52.168;5.420;2024-03-08T11:39:51;21.17;;;10.85;;
10319;SDS011;5205;52.168;5.420;2024-03-08T11:42:23;17.50;;;9.30;;
10319;SDS011;5205;52.168;5.420;2024-03-08T11:44:52;22.35;;;10.00;;
10319;SDS011;5205;52.168;5.420;2024-03-08T11:47:20;21.00;;;10.63;;
10319;SDS011;5205;52.168;5.420;2024-03-08T11:49:47;22.00;;;10.55;;
10319;SDS011;5205;52.168;5.420;2024-03-08T11:52:15;22.10;;;11.25;;
10319;SDS011;5205;52.168;5.420;2024-03-08T11:54:48;19.75;;;10.57;;
10319;SDS011;5205;52.168;5.420;2024-03-08T11:57:19;21.70;;;11.10;;
10319;SDS011;5205;52.168;5.420;2024-03-08T11:59:49;18.17;;;9.95;;
10319;SDS011;5205;52.168;5.420;2024-03-08T12:02:16;18.30;;;10.38;;
10319;SDS011;5205;52.168;5.420;2024-03-08T12:04:44;17.90;;;9.82;;
10319;SDS011;5205;52.168;5.420;2024-03-08T12:07:12;17.80;;;9.23;;
10319;SDS011;5205;52.168;5.420;2024-03-08T12:09:39;18.70;;;9.77;;
10319;SDS011;5205;52.168;5.420;2024-03-08T12:12:12;19.25;;;9.40;;
10319;SDS011;5205;52.168;5.420;2024-03-08T12:14:42;17.48;;;9.23;;
10319;SDS011;5205;52.168;5.420;2024-03-08T12:17:10;17.27;;;9.63;;
10319;SDS011;5205;52.168;5.420;2024-03-08T12:19:39;16.15;;;8.88;;
10319;SDS011;5205;52.168;5.420;2024-03-08T12:22:09;18.45;;;9.93;;
10319;SDS011;5205;52.168;5.420;2024-03-08T12:24:36;19.83;;;9.88;;
10319;SDS011;5205;52.168;5.420;2024-03-08T12:27:18;17.55;;;9.68;;
10319;SDS011;5205;52.168;5.420;2024-03-08T12:29:45;23.55;;;9.48;;
10319;SDS011;5205;52.168;5.420;2024-03-08T12:32:13;17.75;;;9.65;;
10319;SDS011;5205;52.168;5.420;2024-03-08T12:34:40;19.38;;;8.95;;
10319;SDS011;5205;52.168;5.420;2024-03-08T12:37:07;18.38;;;8.82;;
10319;SDS011;5205;52.168;5.420;2024-03-08T12:39:34;17.20;;;8.90;;
10319;SDS011;5205;52.168;5.420;2024-03-08T12:42:03;15.68;;;8.55;;
10319;SDS011;5205;52.168;5.420;2024-03-08T12:44:31;17.75;;;8.98;;
10319;SDS011;5205;52.168;5.420;2024-03-08T12:46:58;18.08;;;9.52;;
10319;SDS011;5205;52.168;5.420;2024-03-08T12:49:26;18.25;;;9.27;;
10319;SDS011;5205;52.168;5.420;2024-03-08T12:51:53;16.23;;;9.73;;
10319;SDS011;5205;52.168;5.420;2024-03-08T12:54:20;17.92;;;8.88;;
10319;SDS011;5205;52.168;5.420;2024-03-08T12:56:49;19.33;;;10.10;;
10319;SDS011;5205;52.168;5.420;2024-03-08T12:59:18;17.98;;;9.77;;
10319;SDS011;5205;52.168;5.420;2024-03-08T13:01:48;16.65;;;9.10;;
10319;SDS011;5205;52.168;5.420;2024-03-08T13:04:16;18.13;;;8.98;;
10319;SDS011;5205;52.168;5.420;2024-03-08T13:06:44;18.90;;;9.52;;
10319;SDS011;5205;52.168;5.420;2024-03-08T13:09:11;17.45;;;8.80;;
10319;SDS011;5205;52.168;5.420;2024-03-08T13:11:38;19.85;;;9.95;;
10319;SDS011;5205;52.168;5.420;2024-03-08T13:14:06;23.20;;;10.30;;
10319;SDS011;5205;52.168;5.420;2024-03-08T13:16:33;19.65;;;9.73;;
10319;SDS011;5205;52.168;5.420;2024-03-08T13:19:02;19.90;;;9.63;;
10319;SDS011;5205;52.168;5.420;2024-03-08T13:21:29;19.08;;;9.75;;
10319;SDS011;5205;52.168;5.420;2024-03-08T13:23:57;18.13;;;9.82;;
10319;SDS011;5205;52.168;5.420;2024-03-08T13:26:26;16.80;;;9.32;;
10319;SDS011;5205;52.168;5.420;2024-03-08T13:28:57;19.80;;;10.32;;
10319;SDS011;5205;52.168;5.420;2024-03-08T13:31:24;19.00;;;10.07;;
10319;SDS011;5205;52.168;5.420;2024-03-08T13:33:52;17.08;;;9.48;;
10319;SDS011;5205;52.168;5.420;2024-03-08T13:36:24;18.17;;;9.60;;
10319;SDS011;5205;52.168;5.420;2024-03-08T13:38:54;18.15;;;9.52;;
10319;SDS011;5205;52.168;5.420;2024-03-08T13:41:24;17.63;;;9.05;;
10319;SDS011;5205;52.168;5.420;2024-03-08T13:43:51;20.10;;;10.77;;
10319;SDS011;5205;52.168;5.420;2024-03-08T13:46:20;19.27;;;10.73;;
10319;SDS011;5205;52.168;5.420;2024-03-08T13:48:49;19.70;;;10.00;;
10319;SDS011;5205;52.168;5.420;2024-03-08T13:51:16;19.98;;;10.40;;
10319;SDS011;5205;52.168;5.420;2024-03-08T13:53:46;16.98;;;9.07;;
10319;SDS011;5205;52.168;5.420;2024-03-08T13:56:13;17.38;;;9.18;;
10319;SDS011;5205;52.168;5.420;2024-03-08T13:58:40;18.05;;;9.55;;
10319;SDS011;5205;52.168;5.420;2024-03-08T14:01:09;18.42;;;9.48;;
10319;SDS011;5205;52.168;5.420;2024-03-08T14:03:36;20.20;;;10.20;;
10319;SDS011;5205;52.168;5.420;2024-03-08T14:06:07;15.98;;;9.27;;
10319;SDS011;5205;52.168;5.420;2024-03-08T14:08:34;19.60;;;10.02;;
10319;SDS011;5205;52.168;5.420;2024-03-08T14:11:04;17.50;;;9.35;;
10319;SDS011;5205;52.168;5.420;2024-03-08T14:13:40;18.70;;;9.57;;
10319;SDS011;5205;52.168;5.420;2024-03-08T14:16:10;15.27;;;8.40;;
10319;SDS011;5205;52.168;5.420;2024-03-08T14:18:38;18.92;;;9.52;;
10319;SDS011;5205;52.168;5.420;2024-03-08T14:21:05;18.60;;;9.80;;
10319;SDS011;5205;52.168;5.420;2024-03-08T14:23:33;20.05;;;9.63;;
10319;SDS011;5205;52.168;5.420;2024-03-08T14:26:01;15.50;;;8.68;;
10319;SDS011;5205;52.168;5.420;2024-03-08T14:28:30;20.10;;;10.38;;
10319;SDS011;5205;52.168;5.420;2024-03-08T14:30:58;17.08;;;9.25;;
10319;SDS011;5205;52.168;5.420;2024-03-08T14:33:28;15.35;;;8.88;;
10319;SDS011;5205;52.168;5.420;2024-03-08T14:35:55;17.17;;;9.40;;
10319;SDS011;5205;52.168;5.420;2024-03-08T14:38:22;20.15;;;9.70;;
10319;SDS011;5205;52.168;5.420;2024-03-08T14:40:52;15.50;;;9.55;;
10319;SDS011;5205;52.168;5.420;2024-03-08T14:43:20;22.92;;;10.15;;
10319;SDS011;5205;52.168;5.420;2024-03-08T14:45:49;19.88;;;10.23;;
10319;SDS011;5205;52.168;5.420;2024-03-08T14:48:16;18.15;;;10.23;;
10319;SDS011;5205;52.168;5.420;2024-03-08T14:50:43;21.05;;;10.68;;
10319;SDS011;5205;52.168;5.420;2024-03-08T14:53:13;23.33;;;9.60;;
10319;SDS011;5205;52.168;5.420;2024-03-08T14:55:40;17.20;;;8.52;;
10319;SDS011;5205;52.168;5.420;2024-03-08T14:58:08;14.35;;;8.80;;
10319;SDS011;5205;52.168;5.420;2024-03-08T15:00:36;14.48;;;8.75;;
10319;SDS011;5205;52.168;5.420;2024-03-08T15:03:06;17.73;;;8.55;;
10319;SDS011;5205;52.168;5.420;2024-03-08T15:08:07;18.42;;;9.45;;
10319;SDS011;5205;52.168;5.420;2024-03-08T15:10:44;21.27;;;9.85;;
10319;SDS011;5205;52.168;5.420;2024-03-08T15:13:12;21.70;;;9.93;;
10319;SDS011;5205;52.168;5.420;2024-03-08T15:15:47;15.82;;;10.10;;
10319;SDS011;5205;52.168;5.420;2024-03-08T15:18:28;16.88;;;9.48;;
10319;SDS011;5205;52.168;5.420;2024-03-08T15:20:59;18.98;;;10.25;;